sensor_id;sensor_type;location;lat;lon;timestamp;P1;P2;P0
68713;PMS7003;55690;51.566;19.198;2023-04-28T00:00:51;7;3;3
68713;PMS7003;55690;51.566;19.198;2023-04-28T00:04:57;9;5;4
68713;PMS7003;55690;51.566;19.198;2023-04-28T00:09:03;7;4;3
68713;PMS7003;55690;51.566;19.198;2023-04-28T00:13:09;3;3;2
68713;PMS7003;55690;51.566;19.198;2023-04-28T00:17:15;7;5;3
68713;PMS7003;55690;51.566;19.198;2023-04-28T00:21:22;10;6;5
68713;PMS7003;55690;51.566;19.198;2023-04-28T00:25:28;10;5;4
68713;PMS7003;55690;51.566;19.198;2023-04-28T00:29:34;8;5;4
68713;PMS7003;55690;51.566;19.198;2023-04-28T00:33:40;4;4;3
68713;PMS7003;55690;51.566;19.198;2023-04-28T00:37:46;20;9;6
68713;PMS7003;55690;51.566;19.198;2023-04-28T00:41:52;5;3;3
68713;PMS7003;55690;51.566;19.198;2023-04-28T00:45:59;5;5;4
68713;PMS7003;55690;51.566;19.198;2023-04-28T00:50:05;6;6;5
68713;PMS7003;55690;51.566;19.198;2023-04-28T00:54:14;7;3;3
68713;PMS7003;55690;51.566;19.198;2023-04-28T00:58:17;9;6;4
68713;PMS7003;55690;51.566;19.198;2023-04-28T01:02:24;8;7;6
68713;PMS7003;55690;51.566;19.198;2023-04-28T01:06:29;9;7;5
68713;PMS7003;55690;51.566;19.198;2023-04-28T01:10:36;7;5;4
68713;PMS7003;55690;51.566;19.198;2023-04-28T01:14:45;3;3;3
68713;PMS7003;55690;51.566;19.198;2023-04-28T01:18:48;13;6;4
68713;PMS7003;55690;51.566;19.198;2023-04-28T01:22:54;5;2;2
68713;PMS7003;55690;51.566;19.198;2023-04-28T01:27:00;10;6;3
68713;PMS7003;55690;51.566;19.198;2023-04-28T01:31:07;6;4;3
68713;PMS7003;55690;51.566;19.198;2023-04-28T01:35:13;22;8;5
68713;PMS7003;55690;51.566;19.198;2023-04-28T01:39:19;9;9;6
68713;PMS7003;55690;51.566;19.198;2023-04-28T01:43:25;6;6;6
68713;PMS7003;55690;51.566;19.198;2023-04-28T01:47:31;8;8;6
68713;PMS7003;55690;51.566;19.198;2023-04-28T01:51:38;16;10;6
68713;PMS7003;55690;51.566;19.198;2023-04-28T01:55:44;11;7;5
68713;PMS7003;55690;51.566;19.198;2023-04-28T01:59:50;5;5;4
68713;PMS7003;55690;51.566;19.198;2023-04-28T02:03:56;13;8;7
68713;PMS7003;55690;51.566;19.198;2023-04-28T02:08:02;9;5;4
68713;PMS7003;55690;51.566;19.198;2023-04-28T02:12:08;10;10;6
68713;PMS7003;55690;51.566;19.198;2023-04-28T02:16:15;6;4;3
68713;PMS7003;55690;51.566;19.198;2023-04-28T02:20:21;7;7;7
68713;PMS7003;55690;51.566;19.198;2023-04-28T02:24:27;5;5;4
68713;PMS7003;55690;51.566;19.198;2023-04-28T02:28:33;12;8;6
68713;PMS7003;55690;51.566;19.198;2023-04-28T02:32:39;9;9;8
68713;PMS7003;55690;51.566;19.198;2023-04-28T02:36:46;6;4;4
68713;PMS7003;55690;51.566;19.198;2023-04-28T02:45:04;8;8;6
68713;PMS7003;55690;51.566;19.198;2023-04-28T02:49:07;10;7;5
68713;PMS7003;55690;51.566;19.198;2023-04-28T02:53:11;11;5;4
68713;PMS7003;55690;51.566;19.198;2023-04-28T02:57:17;7;6;5
68713;PMS7003;55690;51.566;19.198;2023-04-28T03:01:23;15;12;7
68713;PMS7003;55690;51.566;19.198;2023-04-28T03:05:29;10;8;4
68713;PMS7003;55690;51.566;19.198;2023-04-28T03:09:35;12;8;6
68713;PMS7003;55690;51.566;19.198;2023-04-28T03:13:41;10;8;6
68713;PMS7003;55690;51.566;19.198;2023-04-28T03:17:47;8;7;4
68713;PMS7003;55690;51.566;19.198;2023-04-28T03:21:54;13;9;6
68713;PMS7003;55690;51.566;19.198;2023-04-28T03:26:00;13;8;6
68713;PMS7003;55690;51.566;19.198;2023-04-28T03:30:06;16;8;6
68713;PMS7003;55690;51.566;19.198;2023-04-28T03:34:12;21;9;7
68713;PMS7003;55690;51.566;19.198;2023-04-28T03:38:19;11;9;7
68713;PMS7003;55690;51.566;19.198;2023-04-28T03:42:25;19;10;7
68713;PMS7003;55690;51.566;19.198;2023-04-28T03:46:31;11;10;8
68713;PMS7003;55690;51.566;19.198;2023-04-28T03:50:37;19;16;11
68713;PMS7003;55690;51.566;19.198;2023-04-28T03:54:43;19;18;10
68713;PMS7003;55690;51.566;19.198;2023-04-28T03:58:50;13;12;10
68713;PMS7003;55690;51.566;19.198;2023-04-28T04:02:55;14;10;7
68713;PMS7003;55690;51.566;19.198;2023-04-28T04:07:02;12;12;10
68713;PMS7003;55690;51.566;19.198;2023-04-28T04:11:08;17;15;12
68713;PMS7003;55690;51.566;19.198;2023-04-28T04:15:14;16;11;7
68713;PMS7003;55690;51.566;19.198;2023-04-28T04:19:20;25;19;16
68713;PMS7003;55690;51.566;19.198;2023-04-28T04:23:26;23;16;12
68713;PMS7003;55690;51.566;19.198;2023-04-28T04:27:33;16;16;9
68713;PMS7003;55690;51.566;19.198;2023-04-28T04:31:39;16;15;10
68713;PMS7003;55690;51.566;19.198;2023-04-28T04:35:45;12;10;8
68713;PMS7003;55690;51.566;19.198;2023-04-28T04:39:51;18;14;10
68713;PMS7003;55690;51.566;19.198;2023-04-28T04:43:57;17;16;9
68713;PMS7003;55690;51.566;19.198;2023-04-28T04:48:04;17;16;11
68713;PMS7003;55690;51.566;19.198;2023-04-28T04:52:10;39;17;12
68713;PMS7003;55690;51.566;19.198;2023-04-28T04:56:16;19;17;12
68713;PMS7003;55690;51.566;19.198;2023-04-28T05:00:22;4;0;0
68713;PMS7003;55690;51.566;19.198;2023-04-28T05:04:28;26;20;13
68713;PMS7003;55690;51.566;19.198;2023-04-28T05:08:34;23;18;14
68713;PMS7003;55690;51.566;19.198;2023-04-28T05:12:41;30;20;13
68713;PMS7003;55690;51.566;19.198;2023-04-28T05:16:47;39;27;19
68713;PMS7003;55690;51.566;19.198;2023-04-28T05:20:53;44;31;18
68713;PMS7003;55690;51.566;19.198;2023-04-28T05:24:59;28;23;14
68713;PMS7003;55690;51.566;19.198;2023-04-28T05:29:05;29;19;14
68713;PMS7003;55690;51.566;19.198;2023-04-28T05:33:12;18;16;12
68713;PMS7003;55690;51.566;19.198;2023-04-28T05:37:18;27;22;16
68713;PMS7003;55690;51.566;19.198;2023-04-28T05:41:24;27;16;12
68713;PMS7003;55690;51.566;19.198;2023-04-28T05:45:30;19;17;11
68713;PMS7003;55690;51.566;19.198;2023-04-28T05:49:36;19;14;12
68713;PMS7003;55690;51.566;19.198;2023-04-28T05:53:43;26;20;15
68713;PMS7003;55690;51.566;19.198;2023-04-28T05:57:49;15;11;8
68713;PMS7003;55690;51.566;19.198;2023-04-28T06:01:56;15;14;10
68713;PMS7003;55690;51.566;19.198;2023-04-28T06:06:01;19;18;14
68713;PMS7003;55690;51.566;19.198;2023-04-28T06:10:08;8;6;4
68713;PMS7003;55690;51.566;19.198;2023-04-28T06:14:13;14;9;6
68713;PMS7003;55690;51.566;19.198;2023-04-28T06:18:20;14;11;9
68713;PMS7003;55690;51.566;19.198;2023-04-28T06:22:26;10;10;7
68713;PMS7003;55690;51.566;19.198;2023-04-28T06:26:32;9;8;6
68713;PMS7003;55690;51.566;19.198;2023-04-28T06:30:38;9;9;5
68713;PMS7003;55690;51.566;19.198;2023-04-28T06:34:44;8;8;7
68713;PMS7003;55690;51.566;19.198;2023-04-28T06:38:50;8;8;7
68713;PMS7003;55690;51.566;19.198;2023-04-28T06:42:57;9;7;6
68713;PMS7003;55690;51.566;19.198;2023-04-28T06:47:03;7;6;5
68713;PMS7003;55690;51.566;19.198;2023-04-28T06:51:09;8;3;3
68713;PMS7003;55690;51.566;19.198;2023-04-28T06:55:15;9;9;8
68713;PMS7003;55690;51.566;19.198;2023-04-28T06:59:21;9;9;7
68713;PMS7003;55690;51.566;19.198;2023-04-28T07:03:28;12;5;5
68713;PMS7003;55690;51.566;19.198;2023-04-28T07:07:34;6;5;3
68713;PMS7003;55690;51.566;19.198;2023-04-28T07:11:40;4;4;4
68713;PMS7003;55690;51.566;19.198;2023-04-28T07:15:46;4;4;3
68713;PMS7003;55690;51.566;19.198;2023-04-28T07:19:52;5;3;3
68713;PMS7003;55690;51.566;19.198;2023-04-28T07:23:58;11;5;4
68713;PMS7003;55690;51.566;19.198;2023-04-28T07:28:05;5;4;3
68713;PMS7003;55690;51.566;19.198;2023-04-28T07:32:11;7;7;5
68713;PMS7003;55690;51.566;19.198;2023-04-28T07:36:17;6;4;3
68713;PMS7003;55690;51.566;19.198;2023-04-28T07:40:23;8;7;6
68713;PMS7003;55690;51.566;19.198;2023-04-28T07:44:29;12;6;6
68713;PMS7003;55690;51.566;19.198;2023-04-28T07:48:35;16;6;5
68713;PMS7003;55690;51.566;19.198;2023-04-28T07:52:42;11;4;4
68713;PMS7003;55690;51.566;19.198;2023-04-28T07:56:48;6;4;4
68713;PMS7003;55690;51.566;19.198;2023-04-28T08:00:54;4;4;4
68713;PMS7003;55690;51.566;19.198;2023-04-28T08:05:01;6;6;5
68713;PMS7003;55690;51.566;19.198;2023-04-28T08:09:06;7;7;6
68713;PMS7003;55690;51.566;19.198;2023-04-28T08:13:12;6;6;4
68713;PMS7003;55690;51.566;19.198;2023-04-28T08:17:19;17;9;7
68713;PMS7003;55690;51.566;19.198;2023-04-28T08:21:25;4;4;3
68713;PMS7003;55690;51.566;19.198;2023-04-28T08:25:31;9;7;6
68713;PMS7003;55690;51.566;19.198;2023-04-28T08:29:37;7;7;5
68713;PMS7003;55690;51.566;19.198;2023-04-28T08:33:43;12;8;6
68713;PMS7003;55690;51.566;19.198;2023-04-28T08:37:53;7;7;5
68713;PMS7003;55690;51.566;19.198;2023-04-28T08:41:56;8;8;7
68713;PMS7003;55690;51.566;19.198;2023-04-28T08:46:04;9;9;8
68713;PMS7003;55690;51.566;19.198;2023-04-28T08:50:08;9;7;5
68713;PMS7003;55690;51.566;19.198;2023-04-28T08:54:14;7;7;6
68713;PMS7003;55690;51.566;19.198;2023-04-28T08:58:21;7;4;4
68713;PMS7003;55690;51.566;19.198;2023-04-28T09:02:27;12;9;8
68713;PMS7003;55690;51.566;19.198;2023-04-28T09:06:36;7;7;6
68713;PMS7003;55690;51.566;19.198;2023-04-28T09:10:39;16;13;10
68713;PMS7003;55690;51.566;19.198;2023-04-28T09:14:45;12;12;10
68713;PMS7003;55690;51.566;19.198;2023-04-28T09:18:56;7;6;6
68713;PMS7003;55690;51.566;19.198;2023-04-28T09:23:20;17;12;8
68713;PMS7003;55690;51.566;19.198;2023-04-28T09:27:11;15;8;7
68713;PMS7003;55690;51.566;19.198;2023-04-28T09:34:58;9;9;8
68713;PMS7003;55690;51.566;19.198;2023-04-28T09:39:05;13;11;8
68713;PMS7003;55690;51.566;19.198;2023-04-28T09:47:23;11;11;8
68713;PMS7003;55690;51.566;19.198;2023-04-28T09:51:25;15;12;10
68713;PMS7003;55690;51.566;19.198;2023-04-28T09:55:29;12;8;7
68713;PMS7003;55690;51.566;19.198;2023-04-28T09:59:35;18;7;5
68713;PMS7003;55690;51.566;19.198;2023-04-28T10:03:42;12;10;7
68713;PMS7003;55690;51.566;19.198;2023-04-28T10:07:48;11;10;6
68713;PMS7003;55690;51.566;19.198;2023-04-28T10:11:54;7;5;5
68713;PMS7003;55690;51.566;19.198;2023-04-28T10:16:00;10;10;9
68713;PMS7003;55690;51.566;19.198;2023-04-28T10:20:07;9;9;8
68713;PMS7003;55690;51.566;19.198;2023-04-28T10:24:17;14;10;9
68713;PMS7003;55690;51.566;19.198;2023-04-28T10:28:27;15;9;7
68713;PMS7003;55690;51.566;19.198;2023-04-28T10:32:29;11;9;8
68713;PMS7003;55690;51.566;19.198;2023-04-28T10:40:47;12;9;8
68713;PMS7003;55690;51.566;19.198;2023-04-28T10:44:49;9;8;5
68713;PMS7003;55690;51.566;19.198;2023-04-28T10:48:52;10;8;6
68713;PMS7003;55690;51.566;19.198;2023-04-28T10:52:56;12;12;10
68713;PMS7003;55690;51.566;19.198;2023-04-28T10:57:23;11;7;5
68713;PMS7003;55690;51.566;19.198;2023-04-28T11:05:24;4;4;3
68713;PMS7003;55690;51.566;19.198;2023-04-28T11:13:44;17;15;11
68713;PMS7003;55690;51.566;19.198;2023-04-28T11:17:49;9;8;7
68713;PMS7003;55690;51.566;19.198;2023-04-28T11:21:57;12;10;7
68713;PMS7003;55690;51.566;19.198;2023-04-28T11:26:01;12;9;7
68713;PMS7003;55690;51.566;19.198;2023-04-28T11:30:03;10;10;9
68713;PMS7003;55690;51.566;19.198;2023-04-28T11:34:17;19;7;5
68713;PMS7003;55690;51.566;19.198;2023-04-28T11:38:21;13;10;8
68713;PMS7003;55690;51.566;19.198;2023-04-28T11:42:22;8;8;6
68713;PMS7003;55690;51.566;19.198;2023-04-28T11:46:27;9;9;6
68713;PMS7003;55690;51.566;19.198;2023-04-28T11:54:38;11;8;6
68713;PMS7003;55690;51.566;19.198;2023-04-28T11:58:43;13;9;8
68713;PMS7003;55690;51.566;19.198;2023-04-28T12:02:44;7;7;6
68713;PMS7003;55690;51.566;19.198;2023-04-28T12:06:46;14;12;10
68713;PMS7003;55690;51.566;19.198;2023-04-28T12:15:17;11;11;10
68713;PMS7003;55690;51.566;19.198;2023-04-28T12:19:20;9;9;8
68713;PMS7003;55690;51.566;19.198;2023-04-28T12:27:32;9;7;6
68713;PMS7003;55690;51.566;19.198;2023-04-28T12:35:50;7;5;4
68713;PMS7003;55690;51.566;19.198;2023-04-28T12:39:54;13;11;8
68713;PMS7003;55690;51.566;19.198;2023-04-28T12:43:56;10;10;6
68713;PMS7003;55690;51.566;19.198;2023-04-28T12:47:57;13;10;8
68713;PMS7003;55690;51.566;19.198;2023-04-28T12:51:59;11;10;8
68713;PMS7003;55690;51.566;19.198;2023-04-28T12:56:01;18;8;7
68713;PMS7003;55690;51.566;19.198;2023-04-28T13:00:07;9;9;7
68713;PMS7003;55690;51.566;19.198;2023-04-28T13:04:13;8;4;4
68713;PMS7003;55690;51.566;19.198;2023-04-28T13:08:19;15;8;6
68713;PMS7003;55690;51.566;19.198;2023-04-28T13:12:25;12;8;7
68713;PMS7003;55690;51.566;19.198;2023-04-28T13:16:31;5;5;4
68713;PMS7003;55690;51.566;19.198;2023-04-28T13:20:37;8;7;6
68713;PMS7003;55690;51.566;19.198;2023-04-28T13:24:44;8;8;7
68713;PMS7003;55690;51.566;19.198;2023-04-28T13:28:50;9;7;7
68713;PMS7003;55690;51.566;19.198;2023-04-28T13:32:56;5;5;5
68713;PMS7003;55690;51.566;19.198;2023-04-28T13:37:02;11;7;6
68713;PMS7003;55690;51.566;19.198;2023-04-28T13:41:08;10;10;9
68713;PMS7003;55690;51.566;19.198;2023-04-28T13:45:15;6;6;5
68713;PMS7003;55690;51.566;19.198;2023-04-28T13:49:21;11;11;10
68713;PMS7003;55690;51.566;19.198;2023-04-28T13:53:27;5;5;4
68713;PMS7003;55690;51.566;19.198;2023-04-28T13:57:33;10;7;6
68713;PMS7003;55690;51.566;19.198;2023-04-28T14:01:39;7;7;6
68713;PMS7003;55690;51.566;19.198;2023-04-28T14:05:45;7;7;6
68713;PMS7003;55690;51.566;19.198;2023-04-28T14:09:51;7;7;6
68713;PMS7003;55690;51.566;19.198;2023-04-28T14:13:58;8;7;6
68713;PMS7003;55690;51.566;19.198;2023-04-28T14:18:04;10;10;7
68713;PMS7003;55690;51.566;19.198;2023-04-28T14:22:10;6;5;5
68713;PMS7003;55690;51.566;19.198;2023-04-28T14:26:16;10;10;8
68713;PMS7003;55690;51.566;19.198;2023-04-28T14:30:22;17;9;8
68713;PMS7003;55690;51.566;19.198;2023-04-28T14:34:29;9;6;6
68713;PMS7003;55690;51.566;19.198;2023-04-28T14:38:35;6;6;5
68713;PMS7003;55690;51.566;19.198;2023-04-28T14:42:41;8;8;8
68713;PMS7003;55690;51.566;19.198;2023-04-28T14:46:47;9;9;9
68713;PMS7003;55690;51.566;19.198;2023-04-28T14:50:53;7;7;7
68713;PMS7003;55690;51.566;19.198;2023-04-28T14:54:59;11;6;6
68713;PMS7003;55690;51.566;19.198;2023-04-28T14:59:05;7;7;6
68713;PMS7003;55690;51.566;19.198;2023-04-28T15:03:12;17;10;8
68713;PMS7003;55690;51.566;19.198;2023-04-28T15:07:18;3;3;3
68713;PMS7003;55690;51.566;19.198;2023-04-28T15:11:24;6;6;5
68713;PMS7003;55690;51.566;19.198;2023-04-28T15:15:30;10;10;7
68713;PMS7003;55690;51.566;19.198;2023-04-28T15:19:36;9;6;5
68713;PMS7003;55690;51.566;19.198;2023-04-28T15:23:42;10;7;7
68713;PMS7003;55690;51.566;19.198;2023-04-28T15:27:49;10;5;4
68713;PMS7003;55690;51.566;19.198;2023-04-28T15:31:55;6;6;6
68713;PMS7003;55690;51.566;19.198;2023-04-28T15:36:01;5;5;5
68713;PMS7003;55690;51.566;19.198;2023-04-28T15:40:08;7;7;6
68713;PMS7003;55690;51.566;19.198;2023-04-28T15:44:13;5;5;5
68713;PMS7003;55690;51.566;19.198;2023-04-28T15:48:20;7;6;4
68713;PMS7003;55690;51.566;19.198;2023-04-28T15:52:26;3;3;3
68713;PMS7003;55690;51.566;19.198;2023-04-28T15:56:32;6;5;5
68713;PMS7003;55690;51.566;19.198;2023-04-28T16:00:38;11;8;7
68713;PMS7003;55690;51.566;19.198;2023-04-28T16:04:44;10;6;5
68713;PMS7003;55690;51.566;19.198;2023-04-28T16:08:50;3;3;3
68713;PMS7003;55690;51.566;19.198;2023-04-28T16:12:56;8;8;7
68713;PMS7003;55690;51.566;19.198;2023-04-28T16:17:02;7;7;6
68713;PMS7003;55690;51.566;19.198;2023-04-28T16:21:09;5;5;5
68713;PMS7003;55690;51.566;19.198;2023-04-28T16:25:15;6;6;5
68713;PMS7003;55690;51.566;19.198;2023-04-28T16:29:21;6;6;5
68713;PMS7003;55690;51.566;19.198;2023-04-28T16:33:27;9;8;6
68713;PMS7003;55690;51.566;19.198;2023-04-28T16:37:33;8;7;7
68713;PMS7003;55690;51.566;19.198;2023-04-28T16:41:39;9;9;7
68713;PMS7003;55690;51.566;19.198;2023-04-28T16:45:46;6;6;5
68713;PMS7003;55690;51.566;19.198;2023-04-28T16:49:52;9;9;7
68713;PMS7003;55690;51.566;19.198;2023-04-28T16:53:58;7;6;6
68713;PMS7003;55690;51.566;19.198;2023-04-28T16:58:04;6;6;5
68713;PMS7003;55690;51.566;19.198;2023-04-28T17:02:10;10;7;5
68713;PMS7003;55690;51.566;19.198;2023-04-28T17:06:16;4;4;4
68713;PMS7003;55690;51.566;19.198;2023-04-28T17:10:23;9;8;8
68713;PMS7003;55690;51.566;19.198;2023-04-28T17:14:29;11;10;8
68713;PMS7003;55690;51.566;19.198;2023-04-28T17:18:35;19;10;9
68713;PMS7003;55690;51.566;19.198;2023-04-28T17:22:41;9;9;6
68713;PMS7003;55690;51.566;19.198;2023-04-28T17:26:47;9;7;5
68713;PMS7003;55690;51.566;19.198;2023-04-28T17:30:53;4;4;4
68713;PMS7003;55690;51.566;19.198;2023-04-28T17:35:00;13;9;7
68713;PMS7003;55690;51.566;19.198;2023-04-28T17:39:06;12;12;10
68713;PMS7003;55690;51.566;19.198;2023-04-28T17:43:12;9;9;8
68713;PMS7003;55690;51.566;19.198;2023-04-28T17:47:18;13;9;8
68713;PMS7003;55690;51.566;19.198;2023-04-28T17:51:25;11;10;7
68713;PMS7003;55690;51.566;19.198;2023-04-28T17:55:30;15;9;8
68713;PMS7003;55690;51.566;19.198;2023-04-28T17:59:37;8;5;4
68713;PMS7003;55690;51.566;19.198;2023-04-28T18:03:43;9;8;6
68713;PMS7003;55690;51.566;19.198;2023-04-28T18:07:49;12;6;5
68713;PMS7003;55690;51.566;19.198;2023-04-28T18:11:55;17;12;9
68713;PMS7003;55690;51.566;19.198;2023-04-28T18:16:01;10;8;7
68713;PMS7003;55690;51.566;19.198;2023-04-28T18:20:08;15;13;10
68713;PMS7003;55690;51.566;19.198;2023-04-28T18:24:14;19;13;11
68713;PMS7003;55690;51.566;19.198;2023-04-28T18:28:20;14;12;8
68713;PMS7003;55690;51.566;19.198;2023-04-28T18:32:26;13;13;11
68713;PMS7003;55690;51.566;19.198;2023-04-28T18:36:32;11;11;10
68713;PMS7003;55690;51.566;19.198;2023-04-28T18:40:38;11;9;8
68713;PMS7003;55690;51.566;19.198;2023-04-28T18:44:45;17;14;10
68713;PMS7003;55690;51.566;19.198;2023-04-28T18:48:51;18;15;9
68713;PMS7003;55690;51.566;19.198;2023-04-28T18:53:02;19;14;12
68713;PMS7003;55690;51.566;19.198;2023-04-28T18:57:06;14;13;11
68713;PMS7003;55690;51.566;19.198;2023-04-28T19:05:17;29;20;15
68713;PMS7003;55690;51.566;19.198;2023-04-28T19:09:22;24;23;16
68713;PMS7003;55690;51.566;19.198;2023-04-28T19:13:28;31;24;18
68713;PMS7003;55690;51.566;19.198;2023-04-28T19:17:34;45;26;16
68713;PMS7003;55690;51.566;19.198;2023-04-28T19:21:41;26;22;18
68713;PMS7003;55690;51.566;19.198;2023-04-28T19:25:46;20;20;14
68713;PMS7003;55690;51.566;19.198;2023-04-28T19:29:52;35;20;16
68713;PMS7003;55690;51.566;19.198;2023-04-28T19:33:59;21;20;13
68713;PMS7003;55690;51.566;19.198;2023-04-28T19:38:05;22;19;15
68713;PMS7003;55690;51.566;19.198;2023-04-28T19:42:11;25;21;16
68713;PMS7003;55690;51.566;19.198;2023-04-28T19:46:17;26;22;17
68713;PMS7003;55690;51.566;19.198;2023-04-28T19:50:23;22;18;13
68713;PMS7003;55690;51.566;19.198;2023-04-28T19:54:29;21;17;12
68713;PMS7003;55690;51.566;19.198;2023-04-28T19:58:36;25;18;13
68713;PMS7003;55690;51.566;19.198;2023-04-28T20:02:42;25;17;14
68713;PMS7003;55690;51.566;19.198;2023-04-28T20:06:48;22;19;17
68713;PMS7003;55690;51.566;19.198;2023-04-28T20:10:54;20;15;11
68713;PMS7003;55690;51.566;19.198;2023-04-28T20:15:00;18;17;11
68713;PMS7003;55690;51.566;19.198;2023-04-28T20:19:07;14;12;10
68713;PMS7003;55690;51.566;19.198;2023-04-28T20:23:13;16;15;12
68713;PMS7003;55690;51.566;19.198;2023-04-28T20:27:19;24;17;13
68713;PMS7003;55690;51.566;19.198;2023-04-28T20:31:25;25;18;12
68713;PMS7003;55690;51.566;19.198;2023-04-28T20:35:31;26;20;16
68713;PMS7003;55690;51.566;19.198;2023-04-28T20:39:37;20;16;13
68713;PMS7003;55690;51.566;19.198;2023-04-28T20:43:44;19;17;11
68713;PMS7003;55690;51.566;19.198;2023-04-28T20:47:50;22;11;10
68713;PMS7003;55690;51.566;19.198;2023-04-28T20:56:05;19;18;15
68713;PMS7003;55690;51.566;19.198;2023-04-28T21:00:09;14;14;10
68713;PMS7003;55690;51.566;19.198;2023-04-28T21:04:14;20;16;13
68713;PMS7003;55690;51.566;19.198;2023-04-28T21:08:21;16;15;9
68713;PMS7003;55690;51.566;19.198;2023-04-28T21:12:27;14;12;10
68713;PMS7003;55690;51.566;19.198;2023-04-28T21:16:33;23;14;12
68713;PMS7003;55690;51.566;19.198;2023-04-28T21:20:39;15;11;9
68713;PMS7003;55690;51.566;19.198;2023-04-28T21:24:45;9;8;7
68713;PMS7003;55690;51.566;19.198;2023-04-28T21:28:52;11;11;8
68713;PMS7003;55690;51.566;19.198;2023-04-28T21:32:58;17;14;11
68713;PMS7003;55690;51.566;19.198;2023-04-28T21:37:04;17;14;10
68713;PMS7003;55690;51.566;19.198;2023-04-28T21:41:10;14;10;8
68713;PMS7003;55690;51.566;19.198;2023-04-28T21:45:16;19;17;12
68713;PMS7003;55690;51.566;19.198;2023-04-28T21:49:22;19;12;9
68713;PMS7003;55690;51.566;19.198;2023-04-28T21:53:29;12;9;6
68713;PMS7003;55690;51.566;19.198;2023-04-28T21:57:35;14;11;8
68713;PMS7003;55690;51.566;19.198;2023-04-28T22:01:41;8;8;6
68713;PMS7003;55690;51.566;19.198;2023-04-28T22:05:47;9;9;8
68713;PMS7003;55690;51.566;19.198;2023-04-28T22:09:53;21;20;14
68713;PMS7003;55690;51.566;19.198;2023-04-28T22:13:59;14;12;10
68713;PMS7003;55690;51.566;19.198;2023-04-28T22:18:06;9;7;5
68713;PMS7003;55690;51.566;19.198;2023-04-28T22:22:12;17;15;11
68713;PMS7003;55690;51.566;19.198;2023-04-28T22:26:18;15;14;11
68713;PMS7003;55690;51.566;19.198;2023-04-28T22:30:25;16;12;8
68713;PMS7003;55690;51.566;19.198;2023-04-28T22:34:30;10;8;6
68713;PMS7003;55690;51.566;19.198;2023-04-28T22:38:37;10;9;8
68713;PMS7003;55690;51.566;19.198;2023-04-28T22:42:43;12;11;7
68713;PMS7003;55690;51.566;19.198;2023-04-28T22:46:49;12;9;8
68713;PMS7003;55690;51.566;19.198;2023-04-28T22:50:55;16;11;9
68713;PMS7003;55690;51.566;19.198;2023-04-28T22:55:01;12;9;6
68713;PMS7003;55690;51.566;19.198;2023-04-28T22:59:07;9;9;8
68713;PMS7003;55690;51.566;19.198;2023-04-28T23:03:14;21;8;7
68713;PMS7003;55690;51.566;19.198;2023-04-28T23:07:20;6;6;6
68713;PMS7003;55690;51.566;19.198;2023-04-28T23:11:26;15;14;10
68713;PMS7003;55690;51.566;19.198;2023-04-28T23:15:32;8;6;6
68713;PMS7003;55690;51.566;19.198;2023-04-28T23:19:38;11;11;7
68713;PMS7003;55690;51.566;19.198;2023-04-28T23:23:44;8;7;5
68713;PMS7003;55690;51.566;19.198;2023-04-28T23:27:51;14;9;8
68713;PMS7003;55690;51.566;19.198;2023-04-28T23:31:57;14;9;5
68713;PMS7003;55690;51.566;19.198;2023-04-28T23:36:03;11;10;7
68713;PMS7003;55690;51.566;19.198;2023-04-28T23:40:10;16;15;12
68713;PMS7003;55690;51.566;19.198;2023-04-28T23:44:15;11;11;8
68713;PMS7003;55690;51.566;19.198;2023-04-28T23:48:22;15;7;7
68713;PMS7003;55690;51.566;19.198;2023-04-28T23:52:28;8;4;3
68713;PMS7003;55690;51.566;19.198;2023-04-28T23:56:34;19;10;7
